Terminal Aerodrome Forecast
Issued by NWS

Current Version | Previous Version | Text Only | Print | Product List | Glossary On
Versions: 1 2 3 4 5 6 7 8 9 10 11 12 13 14 15 16 17 18 19 20 21 22 23
000
FTAK31 PAJN 232324
TAFAYA
TAF
PAYA 232324Z 2400/2424 27012G21KT P6SM SCT018
      TEMPO 2400/2403 BKN018
     FM240300 27012KT P6SM BKN015
     FM240700 28004KT P6SM OVC015
     FM241800 VRB04KT P6SM BKN025 BKN080
      AMD LTD TO CLD VIS AND WIND 2401/2409=

USA.gov is the U.S. government's official web portal to all federal, state and local government web resources and services.